<?xml version="1.0" encoding="UTF-8" standalone="no" ?>
<gpx xmlns="http://www.topografix.com/GPX/1/1" xmlns:xsi="http://www.w3.org/2001/XMLSchema-instance" xsi:schemaLocation="http://www.topografix.com/GPX/1/1 http://www.topografix.com/GPX/1/1/gpx.xsd" version="1.1" creator="VisuGPX - https://www.visugpx.com">
  <metadata>
    <name>Castelsagrat 9.3 km</name>
  </metadata>
  <trk>
    <name><![CDATA[2025 08 24 Castelsagrat 9]]></name>
    <extensions>
      <line xmlns="http://www.topografix.com/GPX/gpx_style/0/2">
        <color>0000FF</color>
        <width>4</width>
      </line>
    </extensions>
    <trkseg>
      <trkpt lat="44.18354" lon="0.94457">
        <ele>164.1</ele>
        <time>2025-08-24T07:06:11.930Z</time>
      </trkpt>
      <trkpt lat="44.18365" lon="0.9447">
        <ele>163.6</ele>
        <time>2025-08-24T07:06:25.930Z</time>
      </trkpt>
      <trkpt lat="44.18371" lon="0.94483">
        <ele>163.9</ele>
        <time>2025-08-24T07:06:41.930Z</time>
      </trkpt>
      <trkpt lat="44.18375" lon="0.94496">
        <ele>164.2</ele>
        <time>2025-08-24T07:07:03.930Z</time>
      </trkpt>
      <trkpt lat="44.18375" lon="0.94501">
        <ele>164.6</ele>
        <time>2025-08-24T07:07:15.930Z</time>
      </trkpt>
      <trkpt lat="44.18351" lon="0.94526">
        <ele>167.3</ele>
        <time>2025-08-24T07:07:59.930Z</time>
      </trkpt>
      <trkpt lat="44.18349" lon="0.94531">
        <ele>167.6</ele>
        <time>2025-08-24T07:08:03.930Z</time>
      </trkpt>
      <trkpt lat="44.18368" lon="0.94576">
        <ele>168.4</ele>
        <time>2025-08-24T07:08:35.930Z</time>
      </trkpt>
      <trkpt lat="44.18375" lon="0.94587">
        <ele>168.1</ele>
        <time>2025-08-24T07:08:43.930Z</time>
      </trkpt>
      <trkpt lat="44.18378" lon="0.94597">
        <ele>168.3</ele>
        <time>2025-08-24T07:08:51.930Z</time>
      </trkpt>
      <trkpt lat="44.18377" lon="0.94601">
        <ele>168.5</ele>
        <time>2025-08-24T07:09:07.931Z</time>
      </trkpt>
      <trkpt lat="44.18384" lon="0.94619">
        <ele>168.6</ele>
        <time>2025-08-24T07:09:23.930Z</time>
      </trkpt>
      <trkpt lat="44.18384" lon="0.94623">
        <ele>168.7</ele>
        <time>2025-08-24T07:09:31.930Z</time>
      </trkpt>
      <trkpt lat="44.18388" lon="0.94631">
        <ele>168.8</ele>
        <time>2025-08-24T07:09:41.930Z</time>
      </trkpt>
      <trkpt lat="44.18392" lon="0.9464">
        <ele>169</ele>
        <time>2025-08-24T07:10:05.930Z</time>
      </trkpt>
      <trkpt lat="44.18398" lon="0.94658">
        <ele>169.6</ele>
        <time>2025-08-24T07:10:13.930Z</time>
      </trkpt>
      <trkpt lat="44.18392" lon="0.94667">
        <ele>170</ele>
        <time>2025-08-24T07:10:21.930Z</time>
      </trkpt>
      <trkpt lat="44.18387" lon="0.94671">
        <ele>170.2</ele>
        <time>2025-08-24T07:10:37.930Z</time>
      </trkpt>
      <trkpt lat="44.18381" lon="0.94676">
        <ele>170.5</ele>
        <time>2025-08-24T07:10:50.930Z</time>
      </trkpt>
      <trkpt lat="44.18377" lon="0.94683">
        <ele>170.8</ele>
        <time>2025-08-24T07:10:52.930Z</time>
      </trkpt>
      <trkpt lat="44.18375" lon="0.94689">
        <ele>170.9</ele>
        <time>2025-08-24T07:10:54.930Z</time>
      </trkpt>
      <trkpt lat="44.18372" lon="0.94693">
        <ele>171</ele>
        <time>2025-08-24T07:10:56.930Z</time>
      </trkpt>
      <trkpt lat="44.1837" lon="0.94703">
        <ele>171.1</ele>
        <time>2025-08-24T07:11:00.930Z</time>
      </trkpt>
      <trkpt lat="44.18352" lon="0.94718">
        <ele>170.6</ele>
        <time>2025-08-24T07:11:16.930Z</time>
      </trkpt>
      <trkpt lat="44.18331" lon="0.94731">
        <ele>169.7</ele>
        <time>2025-08-24T07:11:32.930Z</time>
      </trkpt>
      <trkpt lat="44.18328" lon="0.94741">
        <ele>169.3</ele>
        <time>2025-08-24T07:11:40.930Z</time>
      </trkpt>
      <trkpt lat="44.18329" lon="0.94756">
        <ele>169.4</ele>
        <time>2025-08-24T07:11:48.930Z</time>
      </trkpt>
      <trkpt lat="44.18328" lon="0.94771">
        <ele>169.4</ele>
        <time>2025-08-24T07:11:56.930Z</time>
      </trkpt>
      <trkpt lat="44.18332" lon="0.94793">
        <ele>170.4</ele>
        <time>2025-08-24T07:12:08.930Z</time>
      </trkpt>
      <trkpt lat="44.18338" lon="0.9482">
        <ele>171.3</ele>
        <time>2025-08-24T07:12:24.930Z</time>
      </trkpt>
      <trkpt lat="44.18339" lon="0.9485">
        <ele>171.9</ele>
        <time>2025-08-24T07:12:40.930Z</time>
      </trkpt>
      <trkpt lat="44.18339" lon="0.94879">
        <ele>172.2</ele>
        <time>2025-08-24T07:12:56.930Z</time>
      </trkpt>
      <trkpt lat="44.18333" lon="0.94926">
        <ele>171.6</ele>
        <time>2025-08-24T07:13:28.930Z</time>
      </trkpt>
      <trkpt lat="44.18324" lon="0.94977">
        <ele>169.8</ele>
        <time>2025-08-24T07:14:00.930Z</time>
      </trkpt>
      <trkpt lat="44.18315" lon="0.95001">
        <ele>169</ele>
        <time>2025-08-24T07:14:16.930Z</time>
      </trkpt>
      <trkpt lat="44.18296" lon="0.95035">
        <ele>168</ele>
        <time>2025-08-24T07:15:20.930Z</time>
      </trkpt>
      <trkpt lat="44.18272" lon="0.95071">
        <ele>167.4</ele>
        <time>2025-08-24T07:15:52.930Z</time>
      </trkpt>
      <trkpt lat="44.18247" lon="0.9514">
        <ele>166</ele>
        <time>2025-08-24T07:16:36.930Z</time>
      </trkpt>
      <trkpt lat="44.18241" lon="0.95171">
        <ele>165.7</ele>
        <time>2025-08-24T07:16:52.930Z</time>
      </trkpt>
      <trkpt lat="44.1824" lon="0.95199">
        <ele>165.6</ele>
        <time>2025-08-24T07:17:08.930Z</time>
      </trkpt>
      <trkpt lat="44.18234" lon="0.95226">
        <ele>165.4</ele>
        <time>2025-08-24T07:17:24.930Z</time>
      </trkpt>
      <trkpt lat="44.18197" lon="0.95513">
        <ele>164.4</ele>
        <time>2025-08-24T07:20:12.930Z</time>
      </trkpt>
      <trkpt lat="44.18237" lon="0.95551">
        <ele>158.6</ele>
        <time>2025-08-24T07:21:00.930Z</time>
      </trkpt>
      <trkpt lat="44.18244" lon="0.9556">
        <ele>156.9</ele>
        <time>2025-08-24T07:21:08.930Z</time>
      </trkpt>
      <trkpt lat="44.18248" lon="0.95573">
        <ele>155.9</ele>
        <time>2025-08-24T07:21:16.930Z</time>
      </trkpt>
      <trkpt lat="44.18244" lon="0.95637">
        <ele>155.3</ele>
        <time>2025-08-24T07:21:56.930Z</time>
      </trkpt>
      <trkpt lat="44.18251" lon="0.95663">
        <ele>152</ele>
        <time>2025-08-24T07:22:12.930Z</time>
      </trkpt>
      <trkpt lat="44.18258" lon="0.9573">
        <ele>144.4</ele>
        <time>2025-08-24T07:23:00.930Z</time>
      </trkpt>
      <trkpt lat="44.1828" lon="0.95851">
        <ele>138.2</ele>
        <time>2025-08-24T07:24:16.930Z</time>
      </trkpt>
      <trkpt lat="44.18295" lon="0.95899">
        <ele>135.7</ele>
        <time>2025-08-24T07:24:48.930Z</time>
      </trkpt>
      <trkpt lat="44.18296" lon="0.95909">
        <ele>135.2</ele>
        <time>2025-08-24T07:24:56.930Z</time>
      </trkpt>
      <trkpt lat="44.18302" lon="0.9592">
        <ele>133.5</ele>
        <time>2025-08-24T07:25:04.930Z</time>
      </trkpt>
      <trkpt lat="44.18305" lon="0.95945">
        <ele>131</ele>
        <time>2025-08-24T07:25:20.930Z</time>
      </trkpt>
      <trkpt lat="44.1832" lon="0.95993">
        <ele>123.9</ele>
        <time>2025-08-24T07:25:48.930Z</time>
      </trkpt>
      <trkpt lat="44.18316" lon="0.96022">
        <ele>121.8</ele>
        <time>2025-08-24T07:26:04.930Z</time>
      </trkpt>
      <trkpt lat="44.1831" lon="0.96034">
        <ele>121.4</ele>
        <time>2025-08-24T07:26:12.930Z</time>
      </trkpt>
      <trkpt lat="44.18299" lon="0.96068">
        <ele>120.9</ele>
        <time>2025-08-24T07:26:32.930Z</time>
      </trkpt>
      <trkpt lat="44.18276" lon="0.96116">
        <ele>118.8</ele>
        <time>2025-08-24T07:29:36.930Z</time>
      </trkpt>
      <trkpt lat="44.18267" lon="0.96169">
        <ele>115.2</ele>
        <time>2025-08-24T07:30:08.930Z</time>
      </trkpt>
      <trkpt lat="44.18262" lon="0.96178">
        <ele>114.8</ele>
        <time>2025-08-24T07:30:16.930Z</time>
      </trkpt>
      <trkpt lat="44.18263" lon="0.96185">
        <ele>114.2</ele>
        <time>2025-08-24T07:30:20.930Z</time>
      </trkpt>
      <trkpt lat="44.18261" lon="0.96204">
        <ele>112.8</ele>
        <time>2025-08-24T07:30:32.930Z</time>
      </trkpt>
      <trkpt lat="44.18263" lon="0.96222">
        <ele>111.1</ele>
        <time>2025-08-24T07:30:48.930Z</time>
      </trkpt>
      <trkpt lat="44.18264" lon="0.96252">
        <ele>108.3</ele>
        <time>2025-08-24T07:31:52.930Z</time>
      </trkpt>
      <trkpt lat="44.18268" lon="0.96324">
        <ele>103.3</ele>
        <time>2025-08-24T07:32:32.930Z</time>
      </trkpt>
      <trkpt lat="44.18266" lon="0.96339">
        <ele>103</ele>
        <time>2025-08-24T07:32:40.930Z</time>
      </trkpt>
      <trkpt lat="44.1827" lon="0.9635">
        <ele>103</ele>
        <time>2025-08-24T07:32:48.930Z</time>
      </trkpt>
      <trkpt lat="44.18269" lon="0.96366">
        <ele>103.2</ele>
        <time>2025-08-24T07:33:20.930Z</time>
      </trkpt>
      <trkpt lat="44.18251" lon="0.96387">
        <ele>104.8</ele>
        <time>2025-08-24T07:34:36.930Z</time>
      </trkpt>
      <trkpt lat="44.18249" lon="0.96388">
        <ele>104.9</ele>
        <time>2025-08-24T07:34:40.930Z</time>
      </trkpt>
      <trkpt lat="44.18229" lon="0.96441">
        <ele>112.4</ele>
        <time>2025-08-24T07:35:28.930Z</time>
      </trkpt>
      <trkpt lat="44.18227" lon="0.96443">
        <ele>112.7</ele>
        <time>2025-08-24T07:35:36.930Z</time>
      </trkpt>
      <trkpt lat="44.18223" lon="0.96457">
        <ele>115.3</ele>
        <time>2025-08-24T07:35:52.930Z</time>
      </trkpt>
      <trkpt lat="44.18224" lon="0.96467">
        <ele>117</ele>
        <time>2025-08-24T07:36:00.930Z</time>
      </trkpt>
      <trkpt lat="44.18219" lon="0.96485">
        <ele>119.4</ele>
        <time>2025-08-24T07:36:16.930Z</time>
      </trkpt>
      <trkpt lat="44.18219" lon="0.96497">
        <ele>121.1</ele>
        <time>2025-08-24T07:36:28.930Z</time>
      </trkpt>
      <trkpt lat="44.18214" lon="0.96512">
        <ele>122.5</ele>
        <time>2025-08-24T07:36:44.930Z</time>
      </trkpt>
      <trkpt lat="44.18212" lon="0.96545">
        <ele>124.9</ele>
        <time>2025-08-24T07:37:16.930Z</time>
      </trkpt>
      <trkpt lat="44.18212" lon="0.96567">
        <ele>126.6</ele>
        <time>2025-08-24T07:37:48.930Z</time>
      </trkpt>
      <trkpt lat="44.18215" lon="0.96596">
        <ele>128.9</ele>
        <time>2025-08-24T07:39:24.930Z</time>
      </trkpt>
      <trkpt lat="44.18217" lon="0.96613">
        <ele>130.1</ele>
        <time>2025-08-24T07:39:38.930Z</time>
      </trkpt>
      <trkpt lat="44.18223" lon="0.96634">
        <ele>131.6</ele>
        <time>2025-08-24T07:39:54.930Z</time>
      </trkpt>
      <trkpt lat="44.18224" lon="0.96656">
        <ele>133.1</ele>
        <time>2025-08-24T07:40:10.930Z</time>
      </trkpt>
      <trkpt lat="44.18222" lon="0.96689">
        <ele>135.6</ele>
        <time>2025-08-24T07:40:34.930Z</time>
      </trkpt>
      <trkpt lat="44.18219" lon="0.967">
        <ele>136.2</ele>
        <time>2025-08-24T07:40:42.930Z</time>
      </trkpt>
      <trkpt lat="44.1821" lon="0.96721">
        <ele>136.5</ele>
        <time>2025-08-24T07:40:58.930Z</time>
      </trkpt>
      <trkpt lat="44.18206" lon="0.96765">
        <ele>140.1</ele>
        <time>2025-08-24T07:41:30.930Z</time>
      </trkpt>
      <trkpt lat="44.18204" lon="0.96776">
        <ele>141.1</ele>
        <time>2025-08-24T07:41:38.930Z</time>
      </trkpt>
      <trkpt lat="44.18205" lon="0.96799">
        <ele>143.2</ele>
        <time>2025-08-24T07:41:58.930Z</time>
      </trkpt>
      <trkpt lat="44.18198" lon="0.96804">
        <ele>142.6</ele>
        <time>2025-08-24T07:42:30.930Z</time>
      </trkpt>
      <trkpt lat="44.18189" lon="0.96804">
        <ele>140.2</ele>
        <time>2025-08-24T07:43:50.930Z</time>
      </trkpt>
      <trkpt lat="44.18172" lon="0.96803">
        <ele>134.6</ele>
        <time>2025-08-24T07:44:46.930Z</time>
      </trkpt>
      <trkpt lat="44.18161" lon="0.96804">
        <ele>131</ele>
        <time>2025-08-24T07:45:02.930Z</time>
      </trkpt>
      <trkpt lat="44.1814" lon="0.96804">
        <ele>123.2</ele>
        <time>2025-08-24T07:45:34.930Z</time>
      </trkpt>
      <trkpt lat="44.18134" lon="0.96802">
        <ele>121.5</ele>
        <time>2025-08-24T07:45:42.930Z</time>
      </trkpt>
      <trkpt lat="44.18128" lon="0.96805">
        <ele>120</ele>
        <time>2025-08-24T07:45:50.930Z</time>
      </trkpt>
      <trkpt lat="44.18113" lon="0.96806">
        <ele>116.5</ele>
        <time>2025-08-24T07:46:10.930Z</time>
      </trkpt>
      <trkpt lat="44.18106" lon="0.96803">
        <ele>115.1</ele>
        <time>2025-08-24T07:46:18.930Z</time>
      </trkpt>
      <trkpt lat="44.18099" lon="0.96794">
        <ele>113.2</ele>
        <time>2025-08-24T07:46:26.930Z</time>
      </trkpt>
      <trkpt lat="44.18093" lon="0.9679">
        <ele>112</ele>
        <time>2025-08-24T07:46:34.930Z</time>
      </trkpt>
      <trkpt lat="44.18081" lon="0.96791">
        <ele>111.2</ele>
        <time>2025-08-24T07:46:50.930Z</time>
      </trkpt>
      <trkpt lat="44.18065" lon="0.96814">
        <ele>113.3</ele>
        <time>2025-08-24T07:47:30.930Z</time>
      </trkpt>
      <trkpt lat="44.18059" lon="0.9682">
        <ele>113.7</ele>
        <time>2025-08-24T07:47:38.930Z</time>
      </trkpt>
      <trkpt lat="44.18055" lon="0.9683">
        <ele>114.1</ele>
        <time>2025-08-24T07:47:46.930Z</time>
      </trkpt>
      <trkpt lat="44.18054" lon="0.96839">
        <ele>114.6</ele>
        <time>2025-08-24T07:47:54.930Z</time>
      </trkpt>
      <trkpt lat="44.18047" lon="0.96851">
        <ele>116.3</ele>
        <time>2025-08-24T07:48:02.930Z</time>
      </trkpt>
      <trkpt lat="44.18034" lon="0.96862">
        <ele>118.8</ele>
        <time>2025-08-24T07:48:18.930Z</time>
      </trkpt>
      <trkpt lat="44.18029" lon="0.96871">
        <ele>120.1</ele>
        <time>2025-08-24T07:48:34.930Z</time>
      </trkpt>
      <trkpt lat="44.18021" lon="0.96879">
        <ele>121.8</ele>
        <time>2025-08-24T07:48:42.930Z</time>
      </trkpt>
      <trkpt lat="44.18013" lon="0.96882">
        <ele>123.2</ele>
        <time>2025-08-24T07:48:50.930Z</time>
      </trkpt>
      <trkpt lat="44.18007" lon="0.96886">
        <ele>124</ele>
        <time>2025-08-24T07:48:58.930Z</time>
      </trkpt>
      <trkpt lat="44.18004" lon="0.96895">
        <ele>124.7</ele>
        <time>2025-08-24T07:49:06.930Z</time>
      </trkpt>
      <trkpt lat="44.17998" lon="0.96901">
        <ele>125.6</ele>
        <time>2025-08-24T07:49:14.930Z</time>
      </trkpt>
      <trkpt lat="44.17987" lon="0.96916">
        <ele>126.5</ele>
        <time>2025-08-24T07:49:38.930Z</time>
      </trkpt>
      <trkpt lat="44.17957" lon="0.9695">
        <ele>128.4</ele>
        <time>2025-08-24T07:50:14.930Z</time>
      </trkpt>
      <trkpt lat="44.17953" lon="0.9696">
        <ele>129.1</ele>
        <time>2025-08-24T07:50:22.930Z</time>
      </trkpt>
      <trkpt lat="44.17894" lon="0.97042">
        <ele>141.8</ele>
        <time>2025-08-24T07:52:34.930Z</time>
      </trkpt>
      <trkpt lat="44.17881" lon="0.97101">
        <ele>146.8</ele>
        <time>2025-08-24T07:54:18.930Z</time>
      </trkpt>
      <trkpt lat="44.17881" lon="0.97101">
        <ele>146.8</ele>
        <time>2025-08-24T07:55:38.930Z</time>
      </trkpt>
      <trkpt lat="44.17885" lon="0.97106">
        <ele>146.8</ele>
        <time>2025-08-24T07:57:46.930Z</time>
      </trkpt>
      <trkpt lat="44.17892" lon="0.97108">
        <ele>146.5</ele>
        <time>2025-08-24T07:57:54.930Z</time>
      </trkpt>
      <trkpt lat="44.17898" lon="0.97114">
        <ele>146.4</ele>
        <time>2025-08-24T07:58:02.930Z</time>
      </trkpt>
      <trkpt lat="44.17901" lon="0.9712">
        <ele>146.8</ele>
        <time>2025-08-24T07:58:10.930Z</time>
      </trkpt>
      <trkpt lat="44.17907" lon="0.97125">
        <ele>146.7</ele>
        <time>2025-08-24T07:58:18.930Z</time>
      </trkpt>
      <trkpt lat="44.17917" lon="0.97139">
        <ele>147</ele>
        <time>2025-08-24T07:58:34.930Z</time>
      </trkpt>
      <trkpt lat="44.17983" lon="0.97184">
        <ele>141.1</ele>
        <time>2025-08-24T07:59:46.930Z</time>
      </trkpt>
      <trkpt lat="44.17988" lon="0.97192">
        <ele>140.2</ele>
        <time>2025-08-24T07:59:54.930Z</time>
      </trkpt>
      <trkpt lat="44.17987" lon="0.97204">
        <ele>140.8</ele>
        <time>2025-08-24T08:00:02.930Z</time>
      </trkpt>
      <trkpt lat="44.17976" lon="0.9724">
        <ele>144</ele>
        <time>2025-08-24T08:00:34.930Z</time>
      </trkpt>
      <trkpt lat="44.17963" lon="0.97269">
        <ele>147.7</ele>
        <time>2025-08-24T08:01:06.930Z</time>
      </trkpt>
      <trkpt lat="44.17922" lon="0.97378">
        <ele>159.9</ele>
        <time>2025-08-24T08:03:14.930Z</time>
      </trkpt>
      <trkpt lat="44.17921" lon="0.97384">
        <ele>160.3</ele>
        <time>2025-08-24T08:05:38.930Z</time>
      </trkpt>
      <trkpt lat="44.1789" lon="0.97358">
        <ele>159.8</ele>
        <time>2025-08-24T08:06:10.930Z</time>
      </trkpt>
      <trkpt lat="44.17803" lon="0.97271">
        <ele>156.9</ele>
        <time>2025-08-24T08:07:42.930Z</time>
      </trkpt>
      <trkpt lat="44.17799" lon="0.9727">
        <ele>156.6</ele>
        <time>2025-08-24T08:07:46.930Z</time>
      </trkpt>
      <trkpt lat="44.17785" lon="0.97253">
        <ele>156.2</ele>
        <time>2025-08-24T08:08:02.930Z</time>
      </trkpt>
      <trkpt lat="44.17756" lon="0.97224">
        <ele>156.1</ele>
        <time>2025-08-24T08:08:34.930Z</time>
      </trkpt>
      <trkpt lat="44.1774" lon="0.97211">
        <ele>156.8</ele>
        <time>2025-08-24T08:08:50.930Z</time>
      </trkpt>
      <trkpt lat="44.17724" lon="0.97201">
        <ele>157.5</ele>
        <time>2025-08-24T08:09:06.930Z</time>
      </trkpt>
      <trkpt lat="44.17705" lon="0.97197">
        <ele>159.1</ele>
        <time>2025-08-24T08:09:22.930Z</time>
      </trkpt>
      <trkpt lat="44.17649" lon="0.97196">
        <ele>161.6</ele>
        <time>2025-08-24T08:10:10.930Z</time>
      </trkpt>
      <trkpt lat="44.17623" lon="0.97188">
        <ele>163.3</ele>
        <time>2025-08-24T08:10:34.930Z</time>
      </trkpt>
      <trkpt lat="44.17606" lon="0.97189">
        <ele>164.1</ele>
        <time>2025-08-24T08:10:50.930Z</time>
      </trkpt>
      <trkpt lat="44.17574" lon="0.97202">
        <ele>163.6</ele>
        <time>2025-08-24T08:11:22.930Z</time>
      </trkpt>
      <trkpt lat="44.17545" lon="0.97223">
        <ele>161.5</ele>
        <time>2025-08-24T08:11:54.930Z</time>
      </trkpt>
      <trkpt lat="44.1751" lon="0.9726">
        <ele>160.6</ele>
        <time>2025-08-24T08:12:58.930Z</time>
      </trkpt>
      <trkpt lat="44.17502" lon="0.97266">
        <ele>160.6</ele>
        <time>2025-08-24T08:13:06.930Z</time>
      </trkpt>
      <trkpt lat="44.17487" lon="0.9727">
        <ele>160.2</ele>
        <time>2025-08-24T08:13:22.930Z</time>
      </trkpt>
      <trkpt lat="44.17451" lon="0.97275">
        <ele>159</ele>
        <time>2025-08-24T08:13:54.930Z</time>
      </trkpt>
      <trkpt lat="44.17425" lon="0.97274">
        <ele>157.4</ele>
        <time>2025-08-24T08:14:18.930Z</time>
      </trkpt>
      <trkpt lat="44.17402" lon="0.9727">
        <ele>156.2</ele>
        <time>2025-08-24T08:14:34.930Z</time>
      </trkpt>
      <trkpt lat="44.17385" lon="0.97264">
        <ele>155.3</ele>
        <time>2025-08-24T08:14:50.930Z</time>
      </trkpt>
      <trkpt lat="44.17338" lon="0.97234">
        <ele>153.1</ele>
        <time>2025-08-24T08:15:38.930Z</time>
      </trkpt>
      <trkpt lat="44.17321" lon="0.97228">
        <ele>152.9</ele>
        <time>2025-08-24T08:15:54.930Z</time>
      </trkpt>
      <trkpt lat="44.17304" lon="0.97228">
        <ele>152.7</ele>
        <time>2025-08-24T08:16:10.930Z</time>
      </trkpt>
      <trkpt lat="44.17278" lon="0.9723">
        <ele>151.5</ele>
        <time>2025-08-24T08:16:34.930Z</time>
      </trkpt>
      <trkpt lat="44.1726" lon="0.97235">
        <ele>150.4</ele>
        <time>2025-08-24T08:16:50.930Z</time>
      </trkpt>
      <trkpt lat="44.17226" lon="0.97239">
        <ele>147.9</ele>
        <time>2025-08-24T08:17:22.930Z</time>
      </trkpt>
      <trkpt lat="44.17192" lon="0.97249">
        <ele>145.9</ele>
        <time>2025-08-24T08:17:54.930Z</time>
      </trkpt>
      <trkpt lat="44.17157" lon="0.97256">
        <ele>144.6</ele>
        <time>2025-08-24T08:18:26.930Z</time>
      </trkpt>
      <trkpt lat="44.1714" lon="0.97262">
        <ele>144.2</ele>
        <time>2025-08-24T08:18:42.930Z</time>
      </trkpt>
      <trkpt lat="44.17095" lon="0.97298">
        <ele>142.5</ele>
        <time>2025-08-24T08:19:46.930Z</time>
      </trkpt>
      <trkpt lat="44.17094" lon="0.97289">
        <ele>142.9</ele>
        <time>2025-08-24T08:21:26.930Z</time>
      </trkpt>
      <trkpt lat="44.17091" lon="0.97279">
        <ele>143.2</ele>
        <time>2025-08-24T08:21:34.930Z</time>
      </trkpt>
      <trkpt lat="44.17094" lon="0.97244">
        <ele>142.2</ele>
        <time>2025-08-24T08:21:58.930Z</time>
      </trkpt>
      <trkpt lat="44.17103" lon="0.97194">
        <ele>138.8</ele>
        <time>2025-08-24T08:22:30.930Z</time>
      </trkpt>
      <trkpt lat="44.17104" lon="0.97181">
        <ele>137.2</ele>
        <time>2025-08-24T08:22:38.930Z</time>
      </trkpt>
      <trkpt lat="44.17085" lon="0.97114">
        <ele>122.6</ele>
        <time>2025-08-24T08:23:26.930Z</time>
      </trkpt>
      <trkpt lat="44.17072" lon="0.971">
        <ele>118.7</ele>
        <time>2025-08-24T08:23:42.930Z</time>
      </trkpt>
      <trkpt lat="44.17052" lon="0.9709">
        <ele>114.5</ele>
        <time>2025-08-24T08:24:14.930Z</time>
      </trkpt>
      <trkpt lat="44.17028" lon="0.9706">
        <ele>108.1</ele>
        <time>2025-08-24T08:24:54.930Z</time>
      </trkpt>
      <trkpt lat="44.17021" lon="0.9706">
        <ele>106.6</ele>
        <time>2025-08-24T08:25:02.930Z</time>
      </trkpt>
      <trkpt lat="44.17011" lon="0.97089">
        <ele>105.8</ele>
        <time>2025-08-24T08:25:26.930Z</time>
      </trkpt>
      <trkpt lat="44.17004" lon="0.97098">
        <ele>105.3</ele>
        <time>2025-08-24T08:25:34.930Z</time>
      </trkpt>
      <trkpt lat="44.17" lon="0.971">
        <ele>104.8</ele>
        <time>2025-08-24T08:25:38.930Z</time>
      </trkpt>
      <trkpt lat="44.16994" lon="0.97099">
        <ele>104.4</ele>
        <time>2025-08-24T08:25:42.930Z</time>
      </trkpt>
      <trkpt lat="44.16986" lon="0.97089">
        <ele>102.7</ele>
        <time>2025-08-24T08:25:50.930Z</time>
      </trkpt>
      <trkpt lat="44.1698" lon="0.97067">
        <ele>99.9</ele>
        <time>2025-08-24T08:26:06.930Z</time>
      </trkpt>
      <trkpt lat="44.16976" lon="0.97044">
        <ele>97.7</ele>
        <time>2025-08-24T08:26:22.930Z</time>
      </trkpt>
      <trkpt lat="44.16934" lon="0.96883">
        <ele>86.8</ele>
        <time>2025-08-24T08:28:06.930Z</time>
      </trkpt>
      <trkpt lat="44.16927" lon="0.96876">
        <ele>86.5</ele>
        <time>2025-08-24T08:28:14.930Z</time>
      </trkpt>
      <trkpt lat="44.16922" lon="0.96875">
        <ele>86.5</ele>
        <time>2025-08-24T08:28:18.930Z</time>
      </trkpt>
      <trkpt lat="44.16906" lon="0.96858">
        <ele>85.7</ele>
        <time>2025-08-24T08:28:34.930Z</time>
      </trkpt>
      <trkpt lat="44.16897" lon="0.96837">
        <ele>85.9</ele>
        <time>2025-08-24T08:28:50.930Z</time>
      </trkpt>
      <trkpt lat="44.16893" lon="0.96818">
        <ele>86.9</ele>
        <time>2025-08-24T08:29:02.930Z</time>
      </trkpt>
      <trkpt lat="44.16888" lon="0.96765">
        <ele>92.4</ele>
        <time>2025-08-24T08:29:38.930Z</time>
      </trkpt>
      <trkpt lat="44.16888" lon="0.96727">
        <ele>97.4</ele>
        <time>2025-08-24T08:30:10.930Z</time>
      </trkpt>
      <trkpt lat="44.16885" lon="0.96654">
        <ele>105.8</ele>
        <time>2025-08-24T08:31:14.930Z</time>
      </trkpt>
      <trkpt lat="44.16886" lon="0.9664">
        <ele>106.8</ele>
        <time>2025-08-24T08:32:18.930Z</time>
      </trkpt>
      <trkpt lat="44.16883" lon="0.96621">
        <ele>108.2</ele>
        <time>2025-08-24T08:32:58.930Z</time>
      </trkpt>
      <trkpt lat="44.16879" lon="0.96607">
        <ele>109.4</ele>
        <time>2025-08-24T08:33:14.930Z</time>
      </trkpt>
      <trkpt lat="44.16878" lon="0.96573">
        <ele>112.4</ele>
        <time>2025-08-24T08:34:18.930Z</time>
      </trkpt>
      <trkpt lat="44.16874" lon="0.96544">
        <ele>114.3</ele>
        <time>2025-08-24T08:34:50.930Z</time>
      </trkpt>
      <trkpt lat="44.16871" lon="0.96485">
        <ele>119.3</ele>
        <time>2025-08-24T08:35:38.930Z</time>
      </trkpt>
      <trkpt lat="44.16876" lon="0.96447">
        <ele>122.3</ele>
        <time>2025-08-24T08:36:10.930Z</time>
      </trkpt>
      <trkpt lat="44.16881" lon="0.96368">
        <ele>128.2</ele>
        <time>2025-08-24T08:37:14.930Z</time>
      </trkpt>
      <trkpt lat="44.16894" lon="0.96235">
        <ele>139.9</ele>
        <time>2025-08-24T08:39:06.930Z</time>
      </trkpt>
      <trkpt lat="44.16896" lon="0.96225">
        <ele>140.5</ele>
        <time>2025-08-24T08:39:14.930Z</time>
      </trkpt>
      <trkpt lat="44.16897" lon="0.96215">
        <ele>141.3</ele>
        <time>2025-08-24T08:39:22.930Z</time>
      </trkpt>
      <trkpt lat="44.16919" lon="0.96136">
        <ele>147</ele>
        <time>2025-08-24T08:40:26.930Z</time>
      </trkpt>
      <trkpt lat="44.16937" lon="0.96102">
        <ele>149.2</ele>
        <time>2025-08-24T08:40:58.930Z</time>
      </trkpt>
      <trkpt lat="44.16958" lon="0.96043">
        <ele>152.4</ele>
        <time>2025-08-24T08:41:46.930Z</time>
      </trkpt>
      <trkpt lat="44.16973" lon="0.95988">
        <ele>156.8</ele>
        <time>2025-08-24T08:45:22.930Z</time>
      </trkpt>
      <trkpt lat="44.16975" lon="0.95976">
        <ele>157.7</ele>
        <time>2025-08-24T08:46:58.930Z</time>
      </trkpt>
      <trkpt lat="44.1699" lon="0.95883">
        <ele>164.6</ele>
        <time>2025-08-24T08:48:10.930Z</time>
      </trkpt>
      <trkpt lat="44.16989" lon="0.95877">
        <ele>164.9</ele>
        <time>2025-08-24T08:48:14.930Z</time>
      </trkpt>
      <trkpt lat="44.16994" lon="0.9586">
        <ele>166.3</ele>
        <time>2025-08-24T08:48:30.930Z</time>
      </trkpt>
      <trkpt lat="44.16996" lon="0.95846">
        <ele>166.6</ele>
        <time>2025-08-24T08:49:02.930Z</time>
      </trkpt>
      <trkpt lat="44.17009" lon="0.95823">
        <ele>167.6</ele>
        <time>2025-08-24T08:49:34.930Z</time>
      </trkpt>
      <trkpt lat="44.17017" lon="0.95795">
        <ele>168.2</ele>
        <time>2025-08-24T08:49:50.930Z</time>
      </trkpt>
      <trkpt lat="44.17033" lon="0.95764">
        <ele>169.5</ele>
        <time>2025-08-24T08:50:14.930Z</time>
      </trkpt>
      <trkpt lat="44.1704" lon="0.95745">
        <ele>170.2</ele>
        <time>2025-08-24T08:50:30.930Z</time>
      </trkpt>
      <trkpt lat="44.17049" lon="0.9574">
        <ele>170.3</ele>
        <time>2025-08-24T08:51:18.931Z</time>
      </trkpt>
      <trkpt lat="44.17051" lon="0.95748">
        <ele>170.1</ele>
        <time>2025-08-24T08:52:22.930Z</time>
      </trkpt>
      <trkpt lat="44.17104" lon="0.95781">
        <ele>162.9</ele>
        <time>2025-08-24T08:53:26.930Z</time>
      </trkpt>
      <trkpt lat="44.17159" lon="0.95812">
        <ele>155.7</ele>
        <time>2025-08-24T08:54:22.930Z</time>
      </trkpt>
      <trkpt lat="44.17162" lon="0.95818">
        <ele>154.9</ele>
        <time>2025-08-24T08:54:26.930Z</time>
      </trkpt>
      <trkpt lat="44.17161" lon="0.95844">
        <ele>152.6</ele>
        <time>2025-08-24T08:54:42.930Z</time>
      </trkpt>
      <trkpt lat="44.17175" lon="0.95859">
        <ele>152</ele>
        <time>2025-08-24T08:54:58.930Z</time>
      </trkpt>
      <trkpt lat="44.17187" lon="0.95877">
        <ele>152</ele>
        <time>2025-08-24T08:55:14.930Z</time>
      </trkpt>
      <trkpt lat="44.17209" lon="0.95923">
        <ele>151.7</ele>
        <time>2025-08-24T08:55:46.930Z</time>
      </trkpt>
      <trkpt lat="44.17216" lon="0.95951">
        <ele>150</ele>
        <time>2025-08-24T08:56:02.930Z</time>
      </trkpt>
      <trkpt lat="44.17215" lon="0.95975">
        <ele>146.6</ele>
        <time>2025-08-24T08:56:18.930Z</time>
      </trkpt>
      <trkpt lat="44.17219" lon="0.96">
        <ele>145.2</ele>
        <time>2025-08-24T08:56:34.930Z</time>
      </trkpt>
      <trkpt lat="44.17237" lon="0.96034">
        <ele>145.4</ele>
        <time>2025-08-24T08:56:58.930Z</time>
      </trkpt>
      <trkpt lat="44.17258" lon="0.96063">
        <ele>145.1</ele>
        <time>2025-08-24T08:57:22.930Z</time>
      </trkpt>
      <trkpt lat="44.17266" lon="0.96082">
        <ele>144</ele>
        <time>2025-08-24T08:57:38.930Z</time>
      </trkpt>
      <trkpt lat="44.17271" lon="0.96087">
        <ele>143.5</ele>
        <time>2025-08-24T08:57:46.930Z</time>
      </trkpt>
      <trkpt lat="44.17273" lon="0.96086">
        <ele>143.3</ele>
        <time>2025-08-24T08:58:50.930Z</time>
      </trkpt>
      <trkpt lat="44.17274" lon="0.96079">
        <ele>143.4</ele>
        <time>2025-08-24T08:59:18.930Z</time>
      </trkpt>
      <trkpt lat="44.17275" lon="0.9603">
        <ele>145.9</ele>
        <time>2025-08-24T08:59:50.930Z</time>
      </trkpt>
      <trkpt lat="44.1728" lon="0.96016">
        <ele>146.5</ele>
        <time>2025-08-24T09:00:02.930Z</time>
      </trkpt>
      <trkpt lat="44.17286" lon="0.95973">
        <ele>149.8</ele>
        <time>2025-08-24T09:00:34.930Z</time>
      </trkpt>
      <trkpt lat="44.17288" lon="0.95939">
        <ele>152.9</ele>
        <time>2025-08-24T09:00:58.930Z</time>
      </trkpt>
      <trkpt lat="44.17292" lon="0.9593">
        <ele>153</ele>
        <time>2025-08-24T09:01:06.930Z</time>
      </trkpt>
      <trkpt lat="44.173" lon="0.95925">
        <ele>152.6</ele>
        <time>2025-08-24T09:01:14.930Z</time>
      </trkpt>
      <trkpt lat="44.17306" lon="0.95916">
        <ele>153</ele>
        <time>2025-08-24T09:01:22.930Z</time>
      </trkpt>
      <trkpt lat="44.17321" lon="0.95907">
        <ele>151.9</ele>
        <time>2025-08-24T09:01:38.930Z</time>
      </trkpt>
      <trkpt lat="44.17334" lon="0.95894">
        <ele>151.6</ele>
        <time>2025-08-24T09:01:54.930Z</time>
      </trkpt>
      <trkpt lat="44.17346" lon="0.95877">
        <ele>151</ele>
        <time>2025-08-24T09:02:10.930Z</time>
      </trkpt>
      <trkpt lat="44.17352" lon="0.95872">
        <ele>150.8</ele>
        <time>2025-08-24T09:02:18.930Z</time>
      </trkpt>
      <trkpt lat="44.17362" lon="0.95856">
        <ele>151.2</ele>
        <time>2025-08-24T09:02:34.930Z</time>
      </trkpt>
      <trkpt lat="44.17376" lon="0.95844">
        <ele>150</ele>
        <time>2025-08-24T09:02:50.930Z</time>
      </trkpt>
      <trkpt lat="44.17388" lon="0.9583">
        <ele>150.5</ele>
        <time>2025-08-24T09:03:06.930Z</time>
      </trkpt>
      <trkpt lat="44.1739" lon="0.95824">
        <ele>150.9</ele>
        <time>2025-08-24T09:03:10.930Z</time>
      </trkpt>
      <trkpt lat="44.17405" lon="0.95813">
        <ele>150.3</ele>
        <time>2025-08-24T09:03:26.930Z</time>
      </trkpt>
      <trkpt lat="44.17413" lon="0.95811">
        <ele>149.6</ele>
        <time>2025-08-24T09:03:34.930Z</time>
      </trkpt>
      <trkpt lat="44.1744" lon="0.9579">
        <ele>149.1</ele>
        <time>2025-08-24T09:04:06.930Z</time>
      </trkpt>
      <trkpt lat="44.17453" lon="0.95774">
        <ele>148.7</ele>
        <time>2025-08-24T09:04:22.930Z</time>
      </trkpt>
      <trkpt lat="44.17458" lon="0.95761">
        <ele>148.7</ele>
        <time>2025-08-24T09:04:30.930Z</time>
      </trkpt>
      <trkpt lat="44.17468" lon="0.95755">
        <ele>147.9</ele>
        <time>2025-08-24T09:04:38.930Z</time>
      </trkpt>
      <trkpt lat="44.17493" lon="0.9573">
        <ele>145.3</ele>
        <time>2025-08-24T09:05:06.930Z</time>
      </trkpt>
      <trkpt lat="44.1751" lon="0.9572">
        <ele>143.1</ele>
        <time>2025-08-24T09:05:22.930Z</time>
      </trkpt>
      <trkpt lat="44.17532" lon="0.95697">
        <ele>142.1</ele>
        <time>2025-08-24T09:05:50.930Z</time>
      </trkpt>
      <trkpt lat="44.1755" lon="0.95687">
        <ele>141</ele>
        <time>2025-08-24T09:06:06.930Z</time>
      </trkpt>
      <trkpt lat="44.1757" lon="0.95672">
        <ele>140.6</ele>
        <time>2025-08-24T09:06:30.930Z</time>
      </trkpt>
      <trkpt lat="44.17576" lon="0.95672">
        <ele>139.7</ele>
        <time>2025-08-24T09:06:34.930Z</time>
      </trkpt>
      <trkpt lat="44.1758" lon="0.95676">
        <ele>138.4</ele>
        <time>2025-08-24T09:06:38.930Z</time>
      </trkpt>
      <trkpt lat="44.17575" lon="0.95726">
        <ele>132</ele>
        <time>2025-08-24T09:07:42.930Z</time>
      </trkpt>
      <trkpt lat="44.17576" lon="0.9573">
        <ele>131.3</ele>
        <time>2025-08-24T09:09:18.930Z</time>
      </trkpt>
      <trkpt lat="44.17596" lon="0.95733">
        <ele>128.4</ele>
        <time>2025-08-24T09:10:14.930Z</time>
      </trkpt>
      <trkpt lat="44.17606" lon="0.95746">
        <ele>125.1</ele>
        <time>2025-08-24T09:10:30.930Z</time>
      </trkpt>
      <trkpt lat="44.17613" lon="0.95749">
        <ele>124.1</ele>
        <time>2025-08-24T09:10:38.930Z</time>
      </trkpt>
      <trkpt lat="44.17652" lon="0.95781">
        <ele>118.3</ele>
        <time>2025-08-24T09:11:26.930Z</time>
      </trkpt>
      <trkpt lat="44.17664" lon="0.95786">
        <ele>117.2</ele>
        <time>2025-08-24T09:11:42.930Z</time>
      </trkpt>
      <trkpt lat="44.17671" lon="0.95783">
        <ele>117.1</ele>
        <time>2025-08-24T09:11:50.930Z</time>
      </trkpt>
      <trkpt lat="44.17695" lon="0.95786">
        <ele>114.8</ele>
        <time>2025-08-24T09:12:14.930Z</time>
      </trkpt>
      <trkpt lat="44.17698" lon="0.95782">
        <ele>114.6</ele>
        <time>2025-08-24T09:12:22.930Z</time>
      </trkpt>
      <trkpt lat="44.17717" lon="0.95689">
        <ele>112.6</ele>
        <time>2025-08-24T09:13:30.930Z</time>
      </trkpt>
      <trkpt lat="44.1771" lon="0.95687">
        <ele>114.7</ele>
        <time>2025-08-24T09:13:38.930Z</time>
      </trkpt>
      <trkpt lat="44.17703" lon="0.95694">
        <ele>116.4</ele>
        <time>2025-08-24T09:13:46.930Z</time>
      </trkpt>
      <trkpt lat="44.17695" lon="0.95698">
        <ele>118.8</ele>
        <time>2025-08-24T09:13:54.930Z</time>
      </trkpt>
      <trkpt lat="44.17672" lon="0.95676">
        <ele>124.5</ele>
        <time>2025-08-24T09:14:34.930Z</time>
      </trkpt>
      <trkpt lat="44.17669" lon="0.95668">
        <ele>125.4</ele>
        <time>2025-08-24T09:14:42.930Z</time>
      </trkpt>
      <trkpt lat="44.17675" lon="0.95619">
        <ele>123.4</ele>
        <time>2025-08-24T09:15:14.930Z</time>
      </trkpt>
      <trkpt lat="44.17682" lon="0.95591">
        <ele>121.1</ele>
        <time>2025-08-24T09:15:38.930Z</time>
      </trkpt>
      <trkpt lat="44.17681" lon="0.95587">
        <ele>121.1</ele>
        <time>2025-08-24T09:15:42.930Z</time>
      </trkpt>
      <trkpt lat="44.17669" lon="0.95581">
        <ele>123.4</ele>
        <time>2025-08-24T09:15:58.930Z</time>
      </trkpt>
      <trkpt lat="44.17666" lon="0.95576">
        <ele>123.6</ele>
        <time>2025-08-24T09:16:06.930Z</time>
      </trkpt>
      <trkpt lat="44.17667" lon="0.95569">
        <ele>122.9</ele>
        <time>2025-08-24T09:16:14.930Z</time>
      </trkpt>
      <trkpt lat="44.17675" lon="0.95554">
        <ele>120.4</ele>
        <time>2025-08-24T09:16:46.930Z</time>
      </trkpt>
      <trkpt lat="44.17676" lon="0.95548">
        <ele>119.8</ele>
        <time>2025-08-24T09:17:02.930Z</time>
      </trkpt>
      <trkpt lat="44.17695" lon="0.95516">
        <ele>114.4</ele>
        <time>2025-08-24T09:17:34.930Z</time>
      </trkpt>
      <trkpt lat="44.17702" lon="0.95497">
        <ele>113.1</ele>
        <time>2025-08-24T09:17:50.930Z</time>
      </trkpt>
      <trkpt lat="44.17712" lon="0.95478">
        <ele>112.2</ele>
        <time>2025-08-24T09:18:06.930Z</time>
      </trkpt>
      <trkpt lat="44.17735" lon="0.95388">
        <ele>110.6</ele>
        <time>2025-08-24T09:19:10.930Z</time>
      </trkpt>
      <trkpt lat="44.17746" lon="0.95339">
        <ele>111.2</ele>
        <time>2025-08-24T09:19:42.930Z</time>
      </trkpt>
      <trkpt lat="44.17767" lon="0.95257">
        <ele>111.3</ele>
        <time>2025-08-24T09:20:46.930Z</time>
      </trkpt>
      <trkpt lat="44.1777" lon="0.95232">
        <ele>111.8</ele>
        <time>2025-08-24T09:21:02.930Z</time>
      </trkpt>
      <trkpt lat="44.17797" lon="0.95127">
        <ele>113.3</ele>
        <time>2025-08-24T09:22:06.930Z</time>
      </trkpt>
      <trkpt lat="44.17809" lon="0.95082">
        <ele>112.9</ele>
        <time>2025-08-24T09:23:26.930Z</time>
      </trkpt>
      <trkpt lat="44.17809" lon="0.9508">
        <ele>113</ele>
        <time>2025-08-24T09:23:58.930Z</time>
      </trkpt>
      <trkpt lat="44.17807" lon="0.95088">
        <ele>112.8</ele>
        <time>2025-08-24T09:25:02.930Z</time>
      </trkpt>
      <trkpt lat="44.17822" lon="0.95026">
        <ele>114.5</ele>
        <time>2025-08-24T09:25:50.930Z</time>
      </trkpt>
      <trkpt lat="44.17828" lon="0.9497">
        <ele>116.4</ele>
        <time>2025-08-24T09:26:30.930Z</time>
      </trkpt>
      <trkpt lat="44.17827" lon="0.9496">
        <ele>117</ele>
        <time>2025-08-24T09:27:58.930Z</time>
      </trkpt>
      <trkpt lat="44.17836" lon="0.94952">
        <ele>116.7</ele>
        <time>2025-08-24T09:31:26.930Z</time>
      </trkpt>
      <trkpt lat="44.17845" lon="0.9495">
        <ele>116.9</ele>
        <time>2025-08-24T09:31:34.930Z</time>
      </trkpt>
      <trkpt lat="44.17855" lon="0.94952">
        <ele>116.9</ele>
        <time>2025-08-24T09:31:42.930Z</time>
      </trkpt>
      <trkpt lat="44.17865" lon="0.94957">
        <ele>117.7</ele>
        <time>2025-08-24T09:31:50.930Z</time>
      </trkpt>
      <trkpt lat="44.17869" lon="0.94962">
        <ele>118.6</ele>
        <time>2025-08-24T09:31:54.930Z</time>
      </trkpt>
      <trkpt lat="44.17872" lon="0.94976">
        <ele>118.9</ele>
        <time>2025-08-24T09:32:02.930Z</time>
      </trkpt>
      <trkpt lat="44.1787" lon="0.94988">
        <ele>118.6</ele>
        <time>2025-08-24T09:32:10.930Z</time>
      </trkpt>
      <trkpt lat="44.17865" lon="0.94997">
        <ele>117.7</ele>
        <time>2025-08-24T09:32:18.931Z</time>
      </trkpt>
      <trkpt lat="44.17858" lon="0.95007">
        <ele>116.5</ele>
        <time>2025-08-24T09:32:26.930Z</time>
      </trkpt>
      <trkpt lat="44.1785" lon="0.95027">
        <ele>115.2</ele>
        <time>2025-08-24T09:32:42.930Z</time>
      </trkpt>
      <trkpt lat="44.1783" lon="0.95141">
        <ele>112</ele>
        <time>2025-08-24T09:34:02.930Z</time>
      </trkpt>
      <trkpt lat="44.17823" lon="0.95164">
        <ele>111.7</ele>
        <time>2025-08-24T09:34:18.930Z</time>
      </trkpt>
      <trkpt lat="44.17807" lon="0.9526">
        <ele>111.9</ele>
        <time>2025-08-24T09:35:22.930Z</time>
      </trkpt>
      <trkpt lat="44.17807" lon="0.95272">
        <ele>111.5</ele>
        <time>2025-08-24T09:35:30.930Z</time>
      </trkpt>
      <trkpt lat="44.178" lon="0.95293">
        <ele>110.6</ele>
        <time>2025-08-24T09:35:46.930Z</time>
      </trkpt>
      <trkpt lat="44.17797" lon="0.9533">
        <ele>110.4</ele>
        <time>2025-08-24T09:36:10.930Z</time>
      </trkpt>
      <trkpt lat="44.17807" lon="0.95365">
        <ele>111.3</ele>
        <time>2025-08-24T09:36:38.930Z</time>
      </trkpt>
      <trkpt lat="44.17809" lon="0.95406">
        <ele>111.2</ele>
        <time>2025-08-24T09:37:06.931Z</time>
      </trkpt>
      <trkpt lat="44.17812" lon="0.95411">
        <ele>111.5</ele>
        <time>2025-08-24T09:37:10.930Z</time>
      </trkpt>
      <trkpt lat="44.17827" lon="0.95413">
        <ele>114.8</ele>
        <time>2025-08-24T09:37:42.930Z</time>
      </trkpt>
      <trkpt lat="44.17878" lon="0.95436">
        <ele>129.6</ele>
        <time>2025-08-24T09:39:18.930Z</time>
      </trkpt>
      <trkpt lat="44.17881" lon="0.95436">
        <ele>130.6</ele>
        <time>2025-08-24T09:39:42.930Z</time>
      </trkpt>
      <trkpt lat="44.17891" lon="0.9544">
        <ele>132.9</ele>
        <time>2025-08-24T09:39:58.930Z</time>
      </trkpt>
      <trkpt lat="44.17892" lon="0.95439">
        <ele>133.2</ele>
        <time>2025-08-24T09:40:02.930Z</time>
      </trkpt>
      <trkpt lat="44.17891" lon="0.95415">
        <ele>134.5</ele>
        <time>2025-08-24T09:40:26.930Z</time>
      </trkpt>
      <trkpt lat="44.17913" lon="0.95344">
        <ele>136</ele>
        <time>2025-08-24T09:41:30.930Z</time>
      </trkpt>
      <trkpt lat="44.1792" lon="0.95309">
        <ele>134.8</ele>
        <time>2025-08-24T09:42:10.930Z</time>
      </trkpt>
      <trkpt lat="44.17926" lon="0.95289">
        <ele>133.9</ele>
        <time>2025-08-24T09:42:26.930Z</time>
      </trkpt>
      <trkpt lat="44.17942" lon="0.95261">
        <ele>133.8</ele>
        <time>2025-08-24T09:42:50.930Z</time>
      </trkpt>
      <trkpt lat="44.17957" lon="0.95247">
        <ele>134.7</ele>
        <time>2025-08-24T09:43:06.930Z</time>
      </trkpt>
      <trkpt lat="44.17959" lon="0.95236">
        <ele>133.7</ele>
        <time>2025-08-24T09:43:14.930Z</time>
      </trkpt>
      <trkpt lat="44.1796" lon="0.95225">
        <ele>132.2</ele>
        <time>2025-08-24T09:43:22.930Z</time>
      </trkpt>
      <trkpt lat="44.17966" lon="0.95216">
        <ele>132.2</ele>
        <time>2025-08-24T09:43:30.930Z</time>
      </trkpt>
      <trkpt lat="44.1797" lon="0.95206">
        <ele>131.9</ele>
        <time>2025-08-24T09:43:38.930Z</time>
      </trkpt>
      <trkpt lat="44.17981" lon="0.95198">
        <ele>132.7</ele>
        <time>2025-08-24T09:43:50.930Z</time>
      </trkpt>
      <trkpt lat="44.17993" lon="0.95198">
        <ele>134.3</ele>
        <time>2025-08-24T09:44:02.930Z</time>
      </trkpt>
      <trkpt lat="44.17996" lon="0.95206">
        <ele>135.7</ele>
        <time>2025-08-24T09:44:10.930Z</time>
      </trkpt>
      <trkpt lat="44.17993" lon="0.95219">
        <ele>136.5</ele>
        <time>2025-08-24T09:44:26.930Z</time>
      </trkpt>
      <trkpt lat="44.17984" lon="0.9523">
        <ele>136.7</ele>
        <time>2025-08-24T09:44:38.930Z</time>
      </trkpt>
      <trkpt lat="44.17983" lon="0.95241">
        <ele>138</ele>
        <time>2025-08-24T09:44:46.930Z</time>
      </trkpt>
      <trkpt lat="44.17979" lon="0.95249">
        <ele>138.6</ele>
        <time>2025-08-24T09:44:54.930Z</time>
      </trkpt>
      <trkpt lat="44.17975" lon="0.95266">
        <ele>139.4</ele>
        <time>2025-08-24T09:45:10.930Z</time>
      </trkpt>
      <trkpt lat="44.17951" lon="0.95299">
        <ele>139.1</ele>
        <time>2025-08-24T09:45:42.930Z</time>
      </trkpt>
      <trkpt lat="44.17943" lon="0.95306">
        <ele>138.8</ele>
        <time>2025-08-24T09:45:50.930Z</time>
      </trkpt>
      <trkpt lat="44.17939" lon="0.95315">
        <ele>138.7</ele>
        <time>2025-08-24T09:45:58.930Z</time>
      </trkpt>
      <trkpt lat="44.17935" lon="0.95319">
        <ele>138.3</ele>
        <time>2025-08-24T09:46:02.930Z</time>
      </trkpt>
      <trkpt lat="44.17937" lon="0.95354">
        <ele>140.6</ele>
        <time>2025-08-24T09:46:30.930Z</time>
      </trkpt>
      <trkpt lat="44.17942" lon="0.95359">
        <ele>141.6</ele>
        <time>2025-08-24T09:46:38.930Z</time>
      </trkpt>
      <trkpt lat="44.17965" lon="0.9537">
        <ele>144.5</ele>
        <time>2025-08-24T09:47:06.930Z</time>
      </trkpt>
      <trkpt lat="44.17974" lon="0.95375">
        <ele>145.6</ele>
        <time>2025-08-24T09:47:18.930Z</time>
      </trkpt>
      <trkpt lat="44.17998" lon="0.95381">
        <ele>148.5</ele>
        <time>2025-08-24T09:47:42.930Z</time>
      </trkpt>
      <trkpt lat="44.18009" lon="0.95385">
        <ele>149.7</ele>
      </trkpt>
      <trkpt lat="44.18015" lon="0.95381">
        <ele>150.1</ele>
        <time>2025-08-24T09:48:06.930Z</time>
      </trkpt>
      <trkpt lat="44.18019" lon="0.95368">
        <ele>149.8</ele>
        <time>2025-08-24T09:48:26.930Z</time>
      </trkpt>
      <trkpt lat="44.18032" lon="0.95307">
        <ele>147.2</ele>
        <time>2025-08-24T09:49:42.930Z</time>
      </trkpt>
      <trkpt lat="44.18035" lon="0.95304">
        <ele>147.2</ele>
        <time>2025-08-24T09:49:46.930Z</time>
      </trkpt>
      <trkpt lat="44.18094" lon="0.9532">
        <ele>150.5</ele>
        <time>2025-08-24T09:50:50.930Z</time>
      </trkpt>
      <trkpt lat="44.18138" lon="0.95336">
        <ele>156</ele>
        <time>2025-08-24T09:51:38.930Z</time>
      </trkpt>
      <trkpt lat="44.182" lon="0.95352">
        <ele>164.5</ele>
        <time>2025-08-24T09:52:58.930Z</time>
      </trkpt>
      <trkpt lat="44.1821" lon="0.95358">
        <ele>165.6</ele>
        <time>2025-08-24T09:53:14.930Z</time>
      </trkpt>
      <trkpt lat="44.18214" lon="0.95328">
        <ele>165.4</ele>
        <time>2025-08-24T09:54:34.930Z</time>
      </trkpt>
      <trkpt lat="44.18235" lon="0.95178">
        <ele>165.5</ele>
        <time>2025-08-24T09:56:10.930Z</time>
      </trkpt>
      <trkpt lat="44.18247" lon="0.95126">
        <ele>166.4</ele>
        <time>2025-08-24T09:56:42.930Z</time>
      </trkpt>
      <trkpt lat="44.18265" lon="0.95076">
        <ele>167.1</ele>
        <time>2025-08-24T09:57:14.930Z</time>
      </trkpt>
      <trkpt lat="44.18313" lon="0.9498">
        <ele>169.7</ele>
        <time>2025-08-24T09:58:26.930Z</time>
      </trkpt>
      <trkpt lat="44.18317" lon="0.94953">
        <ele>170.3</ele>
        <time>2025-08-24T09:58:42.930Z</time>
      </trkpt>
      <trkpt lat="44.18323" lon="0.94931">
        <ele>170.9</ele>
        <time>2025-08-24T09:58:58.930Z</time>
      </trkpt>
      <trkpt lat="44.18324" lon="0.94897">
        <ele>171.6</ele>
        <time>2025-08-24T09:59:22.930Z</time>
      </trkpt>
      <trkpt lat="44.18334" lon="0.94847">
        <ele>171.5</ele>
        <time>2025-08-24T09:59:54.930Z</time>
      </trkpt>
      <trkpt lat="44.18345" lon="0.94825">
        <ele>171.8</ele>
        <time>2025-08-24T10:00:10.930Z</time>
      </trkpt>
      <trkpt lat="44.18369" lon="0.94785">
        <ele>173</ele>
        <time>2025-08-24T10:00:42.930Z</time>
      </trkpt>
      <trkpt lat="44.18377" lon="0.94778">
        <ele>173</ele>
        <time>2025-08-24T10:00:50.930Z</time>
      </trkpt>
      <trkpt lat="44.18383" lon="0.94768">
        <ele>172.9</ele>
        <time>2025-08-24T10:00:58.930Z</time>
      </trkpt>
      <trkpt lat="44.18393" lon="0.94758">
        <ele>173</ele>
        <time>2025-08-24T10:01:10.930Z</time>
      </trkpt>
      <trkpt lat="44.18372" lon="0.94716">
        <ele>171.3</ele>
        <time>2025-08-24T10:01:46.930Z</time>
      </trkpt>
      <trkpt lat="44.18378" lon="0.947">
        <ele>171.1</ele>
        <time>2025-08-24T10:02:02.930Z</time>
      </trkpt>
      <trkpt lat="44.18374" lon="0.94668">
        <ele>170.6</ele>
        <time>2025-08-24T10:02:34.930Z</time>
      </trkpt>
      <trkpt lat="44.18379" lon="0.94628">
        <ele>169.1</ele>
        <time>2025-08-24T10:02:58.930Z</time>
      </trkpt>
      <trkpt lat="44.18378" lon="0.94615">
        <ele>168.9</ele>
        <time>2025-08-24T10:03:08.930Z</time>
      </trkpt>
      <trkpt lat="44.18367" lon="0.94594">
        <ele>169</ele>
        <time>2025-08-24T10:04:44.930Z</time>
      </trkpt>
      <trkpt lat="44.18345" lon="0.94536">
        <ele>167.8</ele>
        <time>2025-08-24T10:05:44.930Z</time>
      </trkpt>
      <trkpt lat="44.18347" lon="0.94529">
        <ele>167.6</ele>
        <time>2025-08-24T10:05:48.930Z</time>
      </trkpt>
      <trkpt lat="44.18355" lon="0.94519">
        <ele>166.9</ele>
        <time>2025-08-24T10:05:56.930Z</time>
      </trkpt>
      <trkpt lat="44.18364" lon="0.94513">
        <ele>166.2</ele>
        <time>2025-08-24T10:06:04.930Z</time>
      </trkpt>
      <trkpt lat="44.18373" lon="0.94502">
        <ele>164.9</ele>
        <time>2025-08-24T10:06:16.930Z</time>
      </trkpt>
      <trkpt lat="44.18371" lon="0.94492">
        <ele>164.5</ele>
        <time>2025-08-24T10:06:24.930Z</time>
      </trkpt>
      <trkpt lat="44.1836" lon="0.94472">
        <ele>164.1</ele>
        <time>2025-08-24T10:06:40.930Z</time>
      </trkpt>
      <trkpt lat="44.18354" lon="0.94466">
        <ele>164.4</ele>
        <time>2025-08-24T10:06:48.930Z</time>
      </trkpt>
      <trkpt lat="44.1835" lon="0.94468">
        <ele>164.7</ele>
        <time>2025-08-24T10:07:20.930Z</time>
      </trkpt>
      <trkpt lat="44.18347" lon="0.94467">
        <ele>164.9</ele>
        <time>2025-08-24T10:08:08.930Z</time>
      </trkpt>
      <trkpt lat="44.18346" lon="0.94465">
        <ele>165</ele>
        <time>2025-08-24T10:08:21.930Z</time>
      </trkpt>
    </trkseg>
  </trk>
</gpx>